createdAt,value
2019-03-04T00:00:03.747Z,12.03
2019-03-04T00:01:03.761Z,11.97
2019-03-04T00:02:05.573Z,12.07
2019-03-04T00:03:03.724Z,12.04
2019-03-04T00:04:04.063Z,12.05
2019-03-04T00:05:03.687Z,12.11
2019-03-04T00:06:03.677Z,12.08
2019-03-04T00:07:03.763Z,12.12
2019-03-04T00:08:03.999Z,12.07
2019-03-04T00:09:03.652Z,12.07
2019-03-04T00:10:04.861Z,12.08
2019-03-04T00:11:03.630Z,12.12
2019-03-04T00:12:03.620Z,12.13
2019-03-04T00:13:03.605Z,12.19
2019-03-04T00:14:03.671Z,12.11
2019-03-04T00:15:03.592Z,12.25
2019-03-04T00:16:05.573Z,12.11
2019-03-04T00:17:03.571Z,12.11
2019-03-04T00:18:03.542Z,12.16
2019-03-04T00:19:03.643Z,12.22
2019-03-04T00:20:03.523Z,12.18
2019-03-04T00:21:03.571Z,12.16
2019-03-04T00:22:03.511Z,12.34
2019-03-04T00:23:03.499Z,12.30
2019-03-04T00:24:04.050Z,12.26
2019-03-04T00:25:03.461Z,12.19
2019-03-04T00:26:03.489Z,12.25
2019-03-04T00:27:03.441Z,12.31
2019-03-04T00:28:03.442Z,12.21
2019-03-04T00:29:03.460Z,12.33
2019-03-04T00:30:03.456Z,12.26
2019-03-04T00:31:03.422Z,12.31
2019-03-04T00:32:03.384Z,12.33
2019-03-04T00:33:03.373Z,12.26
2019-03-04T00:34:03.495Z,12.33
2019-03-04T00:35:03.352Z,12.34
2019-03-04T00:36:03.391Z,12.23
2019-03-04T00:37:04.078Z,12.31
2019-03-04T00:38:03.320Z,12.30
2019-03-04T00:39:03.303Z,12.30
2019-03-04T00:40:03.323Z,12.25
2019-03-04T00:41:03.332Z,12.26
2019-03-04T00:42:03.282Z,12.31
2019-03-04T00:43:04.255Z,12.36
2019-03-04T00:44:03.468Z,12.40
2019-03-04T00:45:03.282Z,12.36
2019-03-04T00:46:03.239Z,12.41
2019-03-04T00:47:03.242Z,12.31
2019-03-04T00:48:04.047Z,12.33
2019-03-04T00:49:03.193Z,12.38
2019-03-04T00:50:03.197Z,12.41
2019-03-04T00:51:03.204Z,12.33
2019-03-04T00:52:04.182Z,12.37
2019-03-04T00:53:03.166Z,12.33
2019-03-04T00:54:03.160Z,12.36
2019-03-04T00:55:03.132Z,12.40
2019-03-04T00:56:03.200Z,12.33
2019-03-04T00:57:03.129Z,12.37
2019-03-04T00:58:03.246Z,12.48
2019-03-04T00:59:03.089Z,12.43
2019-03-04T01:00:03.071Z,12.37
2019-03-04T01:01:03.207Z,12.38
2019-03-04T01:02:03.053Z,12.41
2019-03-04T01:03:03.049Z,12.34
2019-03-04T01:04:03.078Z,12.36
2019-03-04T01:05:03.040Z,12.46
2019-03-04T01:06:03.527Z,12.48
2019-03-04T01:07:03.044Z,12.54
2019-03-04T01:08:02.985Z,12.52
2019-03-04T01:09:02.969Z,12.34
2019-03-04T01:10:02.964Z,12.49
2019-03-04T01:11:03.642Z,12.46
2019-03-04T01:12:02.948Z,12.34
2019-03-04T01:13:03.114Z,12.36
2019-03-04T01:14:02.935Z,12.46
2019-03-04T01:15:02.915Z,12.38
2019-03-04T01:16:02.975Z,12.38
2019-03-04T01:17:02.887Z,12.46
2019-03-04T01:18:02.897Z,12.49
2019-03-04T01:19:02.865Z,12.46
2019-03-04T01:20:02.849Z,12.44
2019-03-04T01:21:02.950Z,12.40
2019-03-04T01:22:02.825Z,12.36
2019-03-04T01:23:02.852Z,12.37
2019-03-04T01:24:02.874Z,12.41
2019-03-04T01:25:02.796Z,12.40
2019-03-04T01:26:02.791Z,12.51
2019-03-04T01:27:02.827Z,12.44
2019-03-04T01:28:02.809Z,12.44
2019-03-04T01:29:02.765Z,12.44
2019-03-04T01:30:02.739Z,12.46
2019-03-04T01:31:02.768Z,12.44
2019-03-04T01:32:02.746Z,12.40
2019-03-04T01:33:02.765Z,12.37
2019-03-04T01:34:02.714Z,12.38
2019-03-04T01:35:02.707Z,12.37
2019-03-04T01:36:02.689Z,12.38
2019-03-04T01:37:02.669Z,12.41
2019-03-04T01:38:02.655Z,12.38
2019-03-04T01:39:02.677Z,12.30
2019-03-04T01:40:02.629Z,12.36
2019-03-04T01:41:02.630Z,12.33
2019-03-04T01:42:02.602Z,12.38
2019-03-04T01:43:02.604Z,12.36
2019-03-04T01:44:02.629Z,12.36
2019-03-04T01:45:02.734Z,12.40
2019-03-04T01:46:02.564Z,12.36
2019-03-04T01:47:02.554Z,12.36
2019-03-04T01:48:02.810Z,12.34
2019-03-04T01:49:02.531Z,12.36
2019-03-04T01:50:02.522Z,12.40
2019-03-04T01:51:02.555Z,12.23
2019-03-04T01:52:02.635Z,12.33
2019-03-04T01:53:02.514Z,12.38
2019-03-04T01:54:02.470Z,12.36
2019-03-04T01:55:02.461Z,12.36
2019-03-04T01:56:02.457Z,12.36
2019-03-04T01:57:02.457Z,12.34
2019-03-04T01:58:02.436Z,12.30
2019-03-04T01:59:02.459Z,12.38
2019-03-04T02:00:02.419Z,12.38
2019-03-04T02:01:02.480Z,12.33
2019-03-04T02:02:02.426Z,12.30
2019-03-04T02:03:02.369Z,12.36
2019-03-04T02:04:02.362Z,12.38
2019-03-04T02:05:02.362Z,12.33
2019-03-04T02:06:03.022Z,12.38
2019-03-04T02:07:02.323Z,12.36
2019-03-04T02:08:02.322Z,12.37
2019-03-04T02:09:02.313Z,12.40
2019-03-04T02:10:02.528Z,12.38
2019-03-04T02:11:02.299Z,12.31
2019-03-04T02:12:02.325Z,12.33
2019-03-04T02:13:02.313Z,12.37
2019-03-04T02:14:02.347Z,12.37
2019-03-04T02:15:02.232Z,12.34
2019-03-04T02:16:02.236Z,12.38
2019-03-04T02:17:02.224Z,12.33
2019-03-04T02:18:02.245Z,12.48
2019-03-04T02:19:04.068Z,12.49
2019-03-04T02:20:02.373Z,12.56
2019-03-04T02:21:02.168Z,12.54
2019-03-04T02:22:02.174Z,12.40
2019-03-04T02:23:03.140Z,12.51
2019-03-04T02:24:02.180Z,12.48
2019-03-04T02:25:02.127Z,12.49
2019-03-04T02:26:02.193Z,12.51
2019-03-04T02:27:02.109Z,12.52
2019-03-04T02:28:03.089Z,12.38
2019-03-04T02:29:02.108Z,12.41
2019-03-04T02:30:02.118Z,12.51
2019-03-04T02:31:02.149Z,12.52
2019-03-04T02:32:03.044Z,12.43
2019-03-04T02:33:02.061Z,12.40
2019-03-04T02:34:02.032Z,12.51
2019-03-04T02:35:02.072Z,12.40
2019-03-04T02:36:02.011Z,12.41
2019-03-04T02:37:02.608Z,12.43
2019-03-04T02:38:01.980Z,12.48
2019-03-04T02:39:01.999Z,12.44
2019-03-04T02:40:01.992Z,12.46
2019-03-04T02:41:01.943Z,12.52
2019-03-04T02:42:02.229Z,12.63
2019-03-04T02:43:02.539Z,12.62
2019-03-04T02:44:02.022Z,12.66
2019-03-04T02:45:01.907Z,12.55
2019-03-04T02:46:01.904Z,12.54
2019-03-04T02:47:03.095Z,12.51
2019-03-04T02:48:01.877Z,12.61
2019-03-04T02:49:02.094Z,12.66
2019-03-04T02:50:01.865Z,12.61
2019-03-04T02:51:01.868Z,12.66
2019-03-04T02:52:01.827Z,12.58
2019-03-04T02:53:01.823Z,12.63
2019-03-04T02:54:02.631Z,12.55
2019-03-04T02:55:01.826Z,12.51
2019-03-04T02:56:01.803Z,12.58
2019-03-04T02:57:01.875Z,12.51
2019-03-04T02:58:01.756Z,12.48
2019-03-04T02:59:01.804Z,12.56
2019-03-04T03:00:01.756Z,12.51
2019-03-04T03:01:01.743Z,12.52
2019-03-04T03:02:01.773Z,12.56
2019-03-04T03:03:01.704Z,12.46
2019-03-04T03:04:02.722Z,12.46
2019-03-04T03:05:02.706Z,12.46
2019-03-04T03:06:01.707Z,12.44
2019-03-04T03:07:01.675Z,12.46
2019-03-04T03:08:01.648Z,12.41
2019-03-04T03:09:01.674Z,12.41
2019-03-04T03:10:01.645Z,12.44
2019-03-04T03:11:01.626Z,12.41
2019-03-04T03:12:01.631Z,12.44
2019-03-04T03:13:01.601Z,12.44
2019-03-04T03:14:01.662Z,12.44
2019-03-04T03:15:01.570Z,12.37
2019-03-04T03:16:01.554Z,12.46
2019-03-04T03:17:01.643Z,12.46
2019-03-04T03:18:01.532Z,12.40
2019-03-04T03:19:01.545Z,12.46
2019-03-04T03:20:01.561Z,12.40
2019-03-04T03:21:01.496Z,12.41
2019-03-04T03:22:01.563Z,12.36
2019-03-04T03:23:01.670Z,12.34
2019-03-04T03:24:01.470Z,12.38
2019-03-04T03:25:01.473Z,12.38
2019-03-04T03:26:01.439Z,12.37
2019-03-04T03:27:01.545Z,12.36
2019-03-04T03:28:01.444Z,12.33
2019-03-04T03:29:01.420Z,12.38
2019-03-04T03:30:01.417Z,12.46
2019-03-04T03:31:01.546Z,12.51
2019-03-04T03:32:01.462Z,12.52
2019-03-04T03:33:01.384Z,12.44
2019-03-04T03:34:01.370Z,12.49
2019-03-04T03:35:01.396Z,12.54
2019-03-04T03:36:01.376Z,12.41
2019-03-04T03:37:01.323Z,12.41
2019-03-04T03:38:01.340Z,12.41
2019-03-04T03:39:01.309Z,12.41
2019-03-04T03:40:01.370Z,12.52
2019-03-04T03:41:01.288Z,12.54
2019-03-04T03:42:01.454Z,12.55
2019-03-04T03:43:01.269Z,12.58
2019-03-04T03:44:01.312Z,12.67
2019-03-04T03:45:01.251Z,12.62
2019-03-04T03:46:01.253Z,12.63
2019-03-04T03:47:01.300Z,12.69
2019-03-04T03:48:02.090Z,12.56
2019-03-04T03:49:01.191Z,12.61
2019-03-04T03:50:01.176Z,12.59
2019-03-04T03:51:01.218Z,12.58
2019-03-04T03:52:01.653Z,12.59
2019-03-04T03:53:01.213Z,12.66
2019-03-04T03:54:01.139Z,12.67
2019-03-04T03:55:01.185Z,12.66
2019-03-04T03:56:01.114Z,12.71
2019-03-04T03:57:01.137Z,12.71
2019-03-04T03:58:01.091Z,12.71
2019-03-04T03:59:01.090Z,12.85
2019-03-04T04:00:01.087Z,12.88
2019-03-04T04:01:01.056Z,12.85
2019-03-04T04:02:01.086Z,12.80
2019-03-04T04:03:01.033Z,12.80
2019-03-04T04:04:01.041Z,12.80
2019-03-04T04:05:01.038Z,12.81
2019-03-04T04:06:01.045Z,12.81
2019-03-04T04:07:01.070Z,12.70
2019-03-04T04:08:00.981Z,12.80
2019-03-04T04:09:07.552Z,12.79
2019-03-04T04:10:01.405Z,12.77
2019-03-04T04:11:00.957Z,12.95
2019-03-04T04:12:00.953Z,12.80
2019-03-04T04:13:00.953Z,12.81
2019-03-04T04:14:00.912Z,12.96
2019-03-04T04:15:01.119Z,12.87
2019-03-04T04:16:00.888Z,12.96
2019-03-04T04:17:00.925Z,12.98
2019-03-04T04:18:00.920Z,12.92
2019-03-04T04:19:00.858Z,12.94
2019-03-04T04:20:00.920Z,12.95
2019-03-04T04:21:00.928Z,12.96
2019-03-04T04:22:00.825Z,13.01
2019-03-04T04:23:00.870Z,12.99
2019-03-04T04:24:00.867Z,13.04
2019-03-04T04:25:00.793Z,13.01
2019-03-04T04:26:00.804Z,13.07
2019-03-04T04:27:00.768Z,13.04
2019-03-04T04:28:00.829Z,13.03
2019-03-04T04:29:00.801Z,12.98
2019-03-04T04:30:01.307Z,13.07
2019-03-04T04:31:00.813Z,13.01
2019-03-04T04:32:00.728Z,13.24
2019-03-04T04:33:00.696Z,13.27
2019-03-04T04:34:00.685Z,13.28
2019-03-04T04:35:00.882Z,13.25
2019-03-04T04:36:01.878Z,13.27
2019-03-04T04:37:00.667Z,13.25
2019-03-04T04:38:00.680Z,13.22
2019-03-04T04:39:01.579Z,13.16
2019-03-04T04:40:00.654Z,13.13
2019-03-04T04:41:00.626Z,13.13
2019-03-04T04:42:00.598Z,13.04
2019-03-04T04:43:00.887Z,13.16
2019-03-04T04:44:00.574Z,13.06
2019-03-04T04:45:00.729Z,13.10
2019-03-04T04:46:00.552Z,13.07
2019-03-04T04:47:00.651Z,13.09
2019-03-04T04:48:00.647Z,13.17
2019-03-04T04:49:01.113Z,13.14
2019-03-04T04:50:00.635Z,13.27
2019-03-04T04:51:01.059Z,13.21
2019-03-04T04:52:00.576Z,13.28
2019-03-04T04:53:00.516Z,13.28
2019-03-04T04:54:01.142Z,13.13
2019-03-04T04:55:00.611Z,13.14
2019-03-04T04:56:00.534Z,13.16
2019-03-04T04:57:00.437Z,13.19
2019-03-04T04:58:00.435Z,13.14
2019-03-04T04:59:00.636Z,13.03
2019-03-04T05:01:34.679Z,13.12
2019-03-04T05:02:35.383Z,13.17
2019-03-04T05:03:34.436Z,13.06
2019-03-04T05:04:34.389Z,13.14
2019-03-04T05:05:34.346Z,13.13
2019-03-04T05:06:34.912Z,13.22
2019-03-04T05:07:34.350Z,13.21
2019-03-04T05:08:34.317Z,13.31
2019-03-04T05:09:34.224Z,13.28
2019-03-04T05:10:34.250Z,13.35
2019-03-04T05:11:34.196Z,13.35
2019-03-04T05:12:34.204Z,13.22
2019-03-04T05:13:34.315Z,13.22
2019-03-04T05:14:34.163Z,13.14
2019-03-04T05:15:34.156Z,13.16
2019-03-04T05:16:34.463Z,13.21
2019-03-04T05:17:34.847Z,13.25
2019-03-04T05:18:34.130Z,13.32
2019-03-04T05:19:34.175Z,13.29
2019-03-04T05:20:34.103Z,13.28
2019-03-04T05:21:34.123Z,13.27
2019-03-04T05:22:34.072Z,13.13
2019-03-04T05:23:34.100Z,13.13
2019-03-04T05:24:34.053Z,13.12
2019-03-04T05:25:34.046Z,13.12
2019-03-04T05:26:34.024Z,13.06
2019-03-04T05:27:34.032Z,13.07
2019-03-04T05:28:34.040Z,13.07
2019-03-04T05:29:33.989Z,13.09
2019-03-04T05:30:33.983Z,13.09
2019-03-04T05:31:35.167Z,13.04
2019-03-04T05:32:34.185Z,12.98
2019-03-04T05:33:34.017Z,13.01
2019-03-04T05:34:33.945Z,13.04
2019-03-04T05:35:33.945Z,12.92
2019-03-04T05:36:33.977Z,12.92
2019-03-04T05:37:42.441Z,12.99
2019-03-04T05:38:33.889Z,12.94
2019-03-04T05:39:33.878Z,12.96
2019-03-04T05:40:33.881Z,12.88
2019-03-04T05:41:34.488Z,12.88
2019-03-04T05:42:33.895Z,12.87
2019-03-04T05:43:34.481Z,12.92
2019-03-04T05:44:34.425Z,12.91
2019-03-04T05:45:33.824Z,12.85
2019-03-04T05:46:33.926Z,12.87
2019-03-04T05:47:34.433Z,12.77
2019-03-04T05:48:33.805Z,12.88
2019-03-04T05:49:33.779Z,12.89
2019-03-04T05:50:33.785Z,12.85
2019-03-04T05:51:33.748Z,12.88
2019-03-04T05:52:33.887Z,12.84
2019-03-04T05:53:34.169Z,12.88
2019-03-04T05:54:33.727Z,12.87
2019-03-04T05:55:35.437Z,12.85
2019-03-04T05:56:33.696Z,12.67
2019-03-04T05:57:34.421Z,12.88
2019-03-04T05:58:33.697Z,12.76
2019-03-04T05:59:33.751Z,12.81
2019-03-04T06:00:33.686Z,12.76
2019-03-04T06:01:33.667Z,12.79
2019-03-04T06:02:33.844Z,12.76
2019-03-04T06:03:33.631Z,12.92
2019-03-04T06:04:33.683Z,12.89
2019-03-04T06:05:33.596Z,12.89
2019-03-04T06:06:33.592Z,12.89
2019-03-04T06:07:33.701Z,12.88
2019-03-04T06:08:33.573Z,12.88
2019-03-04T06:09:33.557Z,12.91
2019-03-04T06:10:33.559Z,12.88
2019-03-04T06:11:33.531Z,12.91
2019-03-04T06:12:35.625Z,12.89
2019-03-04T06:13:33.508Z,12.91
2019-03-04T06:14:33.555Z,12.88
2019-03-04T06:15:34.421Z,12.87
2019-03-04T06:16:34.439Z,12.95
2019-03-04T06:17:33.474Z,12.89
2019-03-04T06:18:33.810Z,12.87
2019-03-04T06:19:34.460Z,12.88
2019-03-04T06:20:33.468Z,12.91
2019-03-04T06:21:33.454Z,12.85
2019-03-04T06:22:33.406Z,12.92
2019-03-04T06:23:33.400Z,12.92
2019-03-04T06:24:33.464Z,12.91
2019-03-04T06:25:33.374Z,12.88
2019-03-04T06:26:33.381Z,12.92
2019-03-04T06:27:33.358Z,12.88
2019-03-04T06:28:33.340Z,12.84
2019-03-04T06:29:33.341Z,12.88
2019-03-04T06:30:33.323Z,12.88
2019-03-04T06:31:33.318Z,12.76
2019-03-04T06:32:33.291Z,12.87
2019-03-04T06:33:42.120Z,12.88
2019-03-04T06:34:33.880Z,12.85
2019-03-04T06:35:33.349Z,12.76
2019-03-04T06:36:34.176Z,12.84
2019-03-04T06:37:34.067Z,12.89
2019-03-04T06:38:33.224Z,12.88
2019-03-04T06:39:33.225Z,12.76
2019-03-04T06:40:33.395Z,12.76
2019-03-04T06:43:49.533Z,12.76
2019-03-04T06:44:49.380Z,12.66
2019-03-04T06:47:36.051Z,12.62
2019-03-04T06:48:41.123Z,12.49
2019-03-04T06:49:35.446Z,12.38
2019-03-04T06:50:35.406Z,12.38
2019-03-04T06:51:35.409Z,12.25
2019-03-04T06:52:36.183Z,12.04
2019-03-04T06:53:35.591Z,11.41
2019-03-04T06:54:36.415Z,10.31
2019-03-04T06:55:35.357Z,9.53
2019-03-04T06:56:35.386Z,8.98
2019-03-04T06:57:35.478Z,8.71
2019-03-04T06:58:35.318Z,8.54
2019-03-04T06:59:35.334Z,8.46
2019-03-04T07:00:35.366Z,8.36
2019-03-04T07:01:35.306Z,8.32
2019-03-04T07:02:35.275Z,8.37
2019-03-04T07:03:35.294Z,8.24
2019-03-04T07:04:35.436Z,8.20
2019-03-04T07:05:35.244Z,8.27
2019-03-04T07:06:35.228Z,8.25
2019-03-04T07:07:36.127Z,8.25
2019-03-04T07:08:35.216Z,8.18
2019-03-04T07:09:35.218Z,8.21
2019-03-04T07:10:35.255Z,8.07
2019-03-04T07:11:35.173Z,8.12
2019-03-04T07:12:35.447Z,8.03
2019-03-04T07:13:35.253Z,8.00
2019-03-04T07:14:35.163Z,7.94
2019-03-04T07:15:35.169Z,8.03
2019-03-04T07:16:35.123Z,7.99
2019-03-04T07:17:35.236Z,7.95
2019-03-04T07:18:35.106Z,7.82
2019-03-04T07:19:35.092Z,7.82
2019-03-04T07:20:35.096Z,7.71
2019-03-04T07:21:35.084Z,7.71
2019-03-04T07:22:35.111Z,7.67
2019-03-04T07:23:35.057Z,7.63
2019-03-04T07:24:35.082Z,7.66
2019-03-04T07:25:35.029Z,7.71
2019-03-04T07:26:35.075Z,7.62
2019-03-04T07:27:35.660Z,7.57
2019-03-04T07:28:35.067Z,7.57
2019-03-04T07:29:35.006Z,7.66
2019-03-04T07:32:09.180Z,7.55
2019-03-04T07:33:08.365Z,7.54
2019-03-04T07:34:08.849Z,7.52
2019-03-04T07:35:08.994Z,7.52
2019-03-04T07:36:08.254Z,7.57
2019-03-04T07:37:08.524Z,7.55
2019-03-04T07:38:08.114Z,7.60
2019-03-04T07:39:08.118Z,7.60
2019-03-04T07:40:08.100Z,7.67
2019-03-04T07:41:08.071Z,7.74
2019-03-04T07:42:09.466Z,7.81
2019-03-04T07:43:08.060Z,7.99
2019-03-04T07:44:09.150Z,7.94
2019-03-04T07:45:10.572Z,7.99
2019-03-04T07:46:08.007Z,7.95
2019-03-04T07:47:08.007Z,8.06
2019-03-04T07:48:07.990Z,8.13
2019-03-04T07:49:08.584Z,8.12
2019-03-04T07:50:08.068Z,8.18
2019-03-04T07:51:07.979Z,8.31
2019-03-04T07:52:08.050Z,8.34
2019-03-04T07:53:07.933Z,8.37
2019-03-04T07:54:07.967Z,8.43
2019-03-04T07:55:07.927Z,8.42
2019-03-04T07:56:07.937Z,8.54
2019-03-04T07:57:08.055Z,8.57
2019-03-04T07:58:14.577Z,8.60
2019-03-04T07:59:08.570Z,8.67
2019-03-04T08:00:07.874Z,8.57
2019-03-04T08:01:07.853Z,8.65
2019-03-04T08:02:07.857Z,8.71
2019-03-04T08:03:07.886Z,8.65
2019-03-04T08:04:07.813Z,8.75
2019-03-04T08:05:07.899Z,8.78
2019-03-04T08:06:07.826Z,8.80
2019-03-04T08:07:07.881Z,8.82
2019-03-04T08:10:53.613Z,8.86
2019-03-04T08:11:52.407Z,8.98
2019-03-04T08:12:52.419Z,9.01
2019-03-04T08:13:52.387Z,8.97
2019-03-04T08:14:52.365Z,9.16
2019-03-04T08:15:52.475Z,9.19
2019-03-04T08:16:52.393Z,9.19
2019-03-04T08:17:52.515Z,9.24
2019-03-04T08:18:52.319Z,9.35
2019-03-04T08:19:52.313Z,9.41
2019-03-04T08:20:52.305Z,9.44
2019-03-04T08:21:52.336Z,9.56
2019-03-04T08:22:52.288Z,9.59
2019-03-04T08:23:52.266Z,9.62
2019-03-04T08:24:52.251Z,9.59
2019-03-04T08:25:52.338Z,9.75
2019-03-04T08:26:52.245Z,9.83
2019-03-04T08:27:52.221Z,9.98
2019-03-04T08:28:52.253Z,10.02
2019-03-04T08:29:52.199Z,10.01
2019-03-04T08:30:52.203Z,10.01
2019-03-04T08:31:52.258Z,10.11
2019-03-04T08:32:52.189Z,9.98
2019-03-04T08:33:52.231Z,10.01
2019-03-04T08:34:52.139Z,10.04
2019-03-04T08:35:52.161Z,10.06
2019-03-04T08:36:52.150Z,10.02
2019-03-04T08:37:52.105Z,10.09
2019-03-04T08:38:52.146Z,10.06
2019-03-04T08:39:52.084Z,10.06
2019-03-04T08:40:52.072Z,10.11
2019-03-04T08:41:52.102Z,10.06
2019-03-04T08:42:52.056Z,9.92
2019-03-04T08:43:52.061Z,9.95
2019-03-04T08:44:52.052Z,9.92
2019-03-04T08:45:52.970Z,9.93
2019-03-04T08:46:52.079Z,9.96
2019-03-04T08:48:28.881Z,9.98
2019-03-04T08:48:52.151Z,9.99
2019-03-04T08:49:52.033Z,10.02
2019-03-04T08:50:51.963Z,10.04
2019-03-04T08:51:51.951Z,9.96
2019-03-04T08:52:51.981Z,9.99
2019-03-04T08:53:51.934Z,9.98
2019-03-04T08:54:51.918Z,9.95
2019-03-04T08:55:51.987Z,9.96
2019-03-04T08:56:51.898Z,10.04
2019-03-04T08:57:51.916Z,9.93
2019-03-04T08:58:51.871Z,9.99
2019-03-04T08:59:51.865Z,9.93
2019-03-04T09:00:52.845Z,9.98
2019-03-04T09:01:51.857Z,9.95
2019-03-04T09:02:51.831Z,10.04
2019-03-04T09:03:51.837Z,10.07
2019-03-04T09:04:51.805Z,10.17
2019-03-04T09:05:51.794Z,10.14
2019-03-04T09:06:52.892Z,10.25
2019-03-04T09:24:56.728Z,10.75
2019-03-04T09:25:56.234Z,10.93
2019-03-04T09:26:56.271Z,10.94
2019-03-04T09:32:07.132Z,11.16
2019-03-04T09:33:06.912Z,11.19
2019-03-04T09:34:06.953Z,11.13
2019-03-04T09:35:07.069Z,11.13
2019-03-04T09:36:07.018Z,11.13
2019-03-04T09:37:06.991Z,11.21
2019-03-04T09:38:07.686Z,11.21
2019-03-04T09:39:06.759Z,11.21
2019-03-04T09:40:06.758Z,11.13
2019-03-04T09:41:07.813Z,11.24
2019-03-04T09:42:06.759Z,11.27
2019-03-04T09:43:06.756Z,11.23
2019-03-04T09:44:06.740Z,11.26
2019-03-04T09:45:06.783Z,11.19
2019-03-04T09:46:06.682Z,11.16
2019-03-04T09:47:06.671Z,11.26
2019-03-04T09:48:06.768Z,11.24
2019-03-04T09:49:06.703Z,11.24
2019-03-04T09:50:06.635Z,11.13
2019-03-04T09:51:07.288Z,11.17
2019-03-04T09:52:06.684Z,11.03
2019-03-04T09:53:06.594Z,11.02
2019-03-04T09:54:09.230Z,10.98
2019-03-04T09:55:06.584Z,10.94
2019-03-04T09:56:06.561Z,10.98
2019-03-04T09:57:06.571Z,10.94
2019-03-04T09:58:06.540Z,10.91
2019-03-04T09:59:06.608Z,10.91
2019-03-04T10:00:06.534Z,10.87
2019-03-04T10:01:06.537Z,10.98
2019-03-04T10:02:06.518Z,11.01
2019-03-04T10:03:06.497Z,10.99
2019-03-04T10:04:06.692Z,11.05
2019-03-04T10:05:06.463Z,10.94
2019-03-04T10:06:06.481Z,11.08
2019-03-04T10:07:06.462Z,11.06
2019-03-04T10:08:07.252Z,11.03
2019-03-04T10:09:06.423Z,11.08
2019-03-04T10:10:06.438Z,11.05
2019-03-04T10:11:06.406Z,11.06
2019-03-04T10:12:06.408Z,10.95
2019-03-04T10:13:06.548Z,11.02
2019-03-04T10:14:06.793Z,11.08
2019-03-04T10:15:08.762Z,11.06
2019-03-04T10:16:07.225Z,11.02
2019-03-04T10:17:06.340Z,10.95
2019-03-04T10:18:06.409Z,10.87
2019-03-04T10:19:06.359Z,10.78
2019-03-04T10:20:06.290Z,10.75
2019-03-04T10:21:06.350Z,10.60
2019-03-04T10:22:06.336Z,10.43
2019-03-04T10:23:08.240Z,10.36
2019-03-04T10:24:06.246Z,10.26
2019-03-04T10:25:06.319Z,10.14
2019-03-04T10:26:06.251Z,9.86
2019-03-04T10:27:16.826Z,9.80
2019-03-04T10:28:06.426Z,9.78
2019-03-04T10:29:06.252Z,9.62
2019-03-04T10:30:06.438Z,9.49
2019-03-04T10:31:06.916Z,9.44
2019-03-04T10:32:06.692Z,9.45
2019-03-04T10:33:06.179Z,9.40
2019-03-04T10:34:06.203Z,9.38
2019-03-04T10:35:06.937Z,9.27
2019-03-04T10:36:06.309Z,9.20
2019-03-04T10:37:06.110Z,9.23
2019-03-04T10:38:06.399Z,9.22
2019-03-04T10:39:06.118Z,9.22
2019-03-04T10:40:06.075Z,9.23
2019-03-04T10:41:06.113Z,9.15
2019-03-04T10:42:06.211Z,9.10
2019-03-04T10:44:37.886Z,9.03
2019-03-04T10:45:35.583Z,9.08
2019-03-04T10:46:35.453Z,9.19
2019-03-04T10:47:35.775Z,9.20
2019-03-04T10:48:35.440Z,9.20
2019-03-04T10:49:37.615Z,9.13
2019-03-04T10:50:35.367Z,9.23
2019-03-04T11:01:30.136Z,9.58
2019-03-04T11:02:23.594Z,9.59
2019-03-04T11:03:22.013Z,9.56
2019-03-04T11:04:22.784Z,9.62
2019-03-04T11:05:22.368Z,9.73
2019-03-04T11:06:24.943Z,9.62
2019-03-04T11:07:22.025Z,9.71
2019-03-04T11:08:21.861Z,9.78
2019-03-04T11:09:21.741Z,9.89
2019-03-04T11:10:21.806Z,9.88
2019-03-04T11:11:29.459Z,9.77
2019-03-04T11:12:24.828Z,9.81
2019-03-04T11:13:21.806Z,9.77
2019-03-04T11:14:22.648Z,9.74
2019-03-04T11:15:21.677Z,9.81
2019-03-04T11:16:26.779Z,9.73
2019-03-04T11:17:30.340Z,9.73
2019-03-04T11:18:21.654Z,9.71
2019-03-04T11:19:22.220Z,9.71
2019-03-04T11:20:21.663Z,9.68
2019-03-04T11:21:21.689Z,9.67
2019-03-04T11:22:21.602Z,9.60
2019-03-04T11:23:22.239Z,9.60
2019-03-04T11:24:21.577Z,9.63
2019-03-04T11:25:22.330Z,9.65
2019-03-04T11:26:21.604Z,9.73
2019-03-04T11:27:21.553Z,9.81
2019-03-04T11:28:21.526Z,9.71
2019-03-04T11:29:21.523Z,9.73
2019-03-04T11:30:21.555Z,9.70
2019-03-04T11:31:21.509Z,9.71
2019-03-04T11:32:21.580Z,9.71
2019-03-04T11:33:21.524Z,9.65
2019-03-04T11:34:21.486Z,9.68
2019-03-04T11:35:21.581Z,9.67
2019-03-04T11:36:21.485Z,9.68
2019-03-04T11:37:21.551Z,9.74
2019-03-04T11:38:21.541Z,9.68
2019-03-04T11:40:51.204Z,9.75
2019-03-04T11:41:51.584Z,9.78
2019-03-04T11:42:51.093Z,9.73
2019-03-04T11:43:51.086Z,9.71
2019-03-04T11:44:51.023Z,9.77
2019-03-04T11:45:51.951Z,9.74
2019-03-04T11:46:50.941Z,9.75
2019-03-04T11:47:50.931Z,9.70
2019-03-04T11:48:51.857Z,9.68
2019-03-04T11:49:50.843Z,9.71
2019-03-04T11:50:54.408Z,9.58
2019-03-04T11:56:27.713Z,8.00
2019-03-04T11:57:27.720Z,7.58
2019-03-04T11:58:27.105Z,7.24
2019-03-04T11:59:29.812Z,7.15
2019-03-04T12:00:27.124Z,7.07
2019-03-04T12:01:26.980Z,6.93
2019-03-04T12:02:26.879Z,6.99
2019-03-04T12:03:26.870Z,6.94
2019-03-04T12:04:26.914Z,6.86
2019-03-04T12:05:28.788Z,6.93
2019-03-04T12:06:26.822Z,6.91
2019-03-04T12:07:26.858Z,7.04
2019-03-04T12:08:26.802Z,7.00
2019-03-04T12:09:26.792Z,6.90
2019-03-04T12:10:26.802Z,6.90
2019-03-04T12:11:26.760Z,6.90
2019-03-04T12:12:26.878Z,6.87
2019-03-04T12:13:26.757Z,6.89
2019-03-04T12:14:26.762Z,6.89
2019-03-04T12:15:26.769Z,6.86
2019-03-04T12:16:26.828Z,6.89
2019-03-04T12:17:26.693Z,6.96
2019-03-04T12:18:26.692Z,6.93
2019-03-04T12:19:28.780Z,6.87
2019-03-04T12:20:26.715Z,6.87
2019-03-04T12:21:26.695Z,6.90
2019-03-04T12:22:26.650Z,6.94
2019-03-04T12:23:26.633Z,7.04
2019-03-04T12:24:26.714Z,7.01
2019-03-04T12:25:26.645Z,7.05
2019-03-04T12:26:26.618Z,7.16
2019-03-04T12:27:26.635Z,7.18
2019-03-04T12:28:26.574Z,7.23
2019-03-04T12:29:26.578Z,7.30
2019-03-04T12:30:26.576Z,7.36
2019-03-04T12:31:28.378Z,7.34
2019-03-04T12:32:26.584Z,7.54
2019-03-04T12:33:26.528Z,7.52
2019-03-04T12:34:26.528Z,7.60
2019-03-04T12:35:26.576Z,7.67
2019-03-04T12:36:26.491Z,7.69
2019-03-04T12:37:26.504Z,7.66
2019-03-04T12:38:26.474Z,7.70
2019-03-04T12:39:26.451Z,7.79
2019-03-04T12:40:26.452Z,7.81
2019-03-04T12:41:26.443Z,7.92
2019-03-04T12:42:26.426Z,7.88
2019-03-04T12:43:26.416Z,8.06
2019-03-04T12:47:02.247Z,7.92
2019-03-04T12:48:11.747Z,7.92
2019-03-04T12:49:11.076Z,7.94
2019-03-04T12:50:02.059Z,7.95
2019-03-04T12:51:01.843Z,7.91
2019-03-04T12:52:01.672Z,7.82
2019-03-04T12:53:02.031Z,7.84
2019-03-04T12:54:01.707Z,7.81
2019-03-04T12:55:01.594Z,7.76
2019-03-04T12:56:01.539Z,7.81
2019-03-04T12:57:03.178Z,7.66
2019-03-04T12:58:01.523Z,7.66
2019-03-04T12:59:01.551Z,7.60
2019-03-04T13:00:01.519Z,7.52
2019-03-04T13:01:03.215Z,7.51
2019-03-04T13:02:01.530Z,7.47
2019-03-04T13:03:01.484Z,7.44
2019-03-04T13:04:01.511Z,7.47
2019-03-04T13:05:02.174Z,7.47
2019-03-04T13:06:01.440Z,7.54
2019-03-04T13:07:04.540Z,7.52
2019-03-04T13:08:01.437Z,7.57
2019-03-04T13:09:01.448Z,7.60
2019-03-04T13:10:01.457Z,7.74
2019-03-04T13:11:02.071Z,7.66
2019-03-04T13:12:01.369Z,7.66
2019-03-04T13:13:01.432Z,7.70
2019-03-04T13:15:02.417Z,7.74
2019-03-04T13:16:01.564Z,7.71
2019-03-04T13:17:01.328Z,7.76
2019-03-04T13:18:01.316Z,7.71
2019-03-04T13:19:01.305Z,7.77
2019-03-04T13:20:01.303Z,7.85
2019-03-04T13:21:01.311Z,7.91
2019-03-04T13:22:08.299Z,8.02
2019-03-04T13:23:02.254Z,8.03
2019-03-04T13:24:01.271Z,8.07
2019-03-04T13:25:10.987Z,8.06
2019-03-04T13:28:55.737Z,8.36
2019-03-04T13:29:56.127Z,8.46
2019-03-04T13:30:55.247Z,8.40
2019-03-04T13:31:54.867Z,8.47
2019-03-04T13:32:54.811Z,8.43
2019-03-04T13:33:54.773Z,8.42
2019-03-04T13:34:54.770Z,8.39
2019-03-04T13:35:54.900Z,8.42
2019-03-04T13:36:54.874Z,8.34
2019-03-04T13:37:54.773Z,8.29
2019-03-04T13:38:54.727Z,8.29
2019-03-04T13:39:54.750Z,8.25
2019-03-04T13:40:54.802Z,8.31
2019-03-04T13:41:54.701Z,8.21
2019-03-04T13:42:55.343Z,8.21
2019-03-04T13:46:01.465Z,8.09
2019-03-04T13:47:01.400Z,8.14
2019-03-04T13:48:01.124Z,8.07
2019-03-04T13:49:01.400Z,8.03
2019-03-04T13:50:01.032Z,8.07
2019-03-04T13:51:01.133Z,8.07
2019-03-04T13:52:01.026Z,7.96
2019-03-04T13:53:01.270Z,7.91
2019-03-04T13:54:00.967Z,8.03
2019-03-04T13:55:00.962Z,8.03
2019-03-04T13:56:00.985Z,8.06
2019-03-04T13:57:00.963Z,7.95
2019-03-04T13:58:00.969Z,7.91
2019-03-04T13:59:01.108Z,7.86